createdAt,value
2023-04-30T00:02:04.523Z,3.63
2023-04-30T00:04:32.700Z,3.90
2023-04-30T00:07:01.281Z,3.90
2023-04-30T00:09:29.421Z,4.13
2023-04-30T00:11:59.097Z,3.83
2023-04-30T00:14:27.258Z,4.30
2023-04-30T00:16:55.846Z,4.30
2023-04-30T00:19:24.612Z,3.60
2023-04-30T00:21:52.944Z,4.40
2023-04-30T00:24:21.072Z,5.03
2023-04-30T00:26:49.196Z,6.07
2023-04-30T00:29:18.701Z,6.90
2023-04-30T00:31:46.891Z,7.10
2023-04-30T00:34:15.341Z,8.87
2023-04-30T00:36:43.589Z,9.37
2023-04-30T00:39:11.812Z,9.43
2023-04-30T00:41:40.831Z,9.00
2023-04-30T00:44:08.928Z,8.83
2023-04-30T00:46:38.458Z,8.13
2023-04-30T00:49:06.916Z,8.23
2023-04-30T00:51:36.419Z,7.63
2023-04-30T00:54:05.815Z,7.97
2023-04-30T00:56:34.350Z,7.67
2023-04-30T00:59:02.577Z,6.60
2023-04-30T01:01:31.870Z,6.43
2023-04-30T01:04:02.107Z,6.57
2023-04-30T01:06:30.358Z,6.40
2023-04-30T01:08:59.353Z,6.20
2023-04-30T01:11:34.913Z,5.83
2023-04-30T01:14:09.366Z,6.13
2023-04-30T01:16:43.832Z,5.93
2023-04-30T01:19:30.200Z,5.53
2023-04-30T01:22:01.615Z,5.70
2023-04-30T01:24:50.426Z,5.63
2023-04-30T01:27:32.536Z,5.90
2023-04-30T01:30:04.805Z,5.40
2023-04-30T01:32:32.986Z,6.10
2023-04-30T01:35:03.073Z,5.80
2023-04-30T01:37:41.235Z,5.83
2023-04-30T01:40:22.619Z,5.90
2023-04-30T01:43:10.546Z,6.20
2023-04-30T01:45:56.233Z,6.50
2023-04-30T01:48:31.399Z,6.27
2023-04-30T01:51:16.552Z,5.97
2023-04-30T01:53:47.505Z,6.57
2023-04-30T01:56:23.797Z,6.23
2023-04-30T01:58:54.048Z,6.77
2023-04-30T02:01:32.051Z,7.10
2023-04-30T02:04:00.892Z,6.37
2023-04-30T02:06:30.453Z,6.50
2023-04-30T02:09:03.527Z,7.07
2023-04-30T02:11:31.813Z,6.50
2023-04-30T02:13:59.878Z,7.40
2023-04-30T02:16:29.493Z,7.27
2023-04-30T02:18:57.739Z,6.77
2023-04-30T02:21:27.208Z,7.00
2023-04-30T02:23:55.585Z,7.43
2023-04-30T02:26:23.741Z,7.93
2023-04-30T02:28:51.852Z,7.47
2023-04-30T02:31:20.472Z,7.23
2023-04-30T02:33:49.989Z,7.30
2023-04-30T02:36:18.144Z,7.83
2023-04-30T02:38:46.952Z,7.90
2023-04-30T02:41:15.040Z,7.50
2023-04-30T02:43:43.184Z,7.93
2023-04-30T02:46:11.394Z,7.93
2023-04-30T02:48:39.590Z,8.40
2023-04-30T02:51:09.349Z,8.17
2023-04-30T02:53:37.443Z,7.90
2023-04-30T02:56:06.213Z,8.27
2023-04-30T02:58:34.359Z,7.63
2023-04-30T03:01:02.545Z,8.30
2023-04-30T03:03:30.768Z,8.17
2023-04-30T03:05:59.679Z,8.43
2023-04-30T03:08:29.435Z,8.57
2023-04-30T03:10:57.759Z,8.23
2023-04-30T03:13:26.772Z,8.93
2023-04-30T03:16:00.246Z,8.43
2023-04-30T03:18:29.013Z,8.23
2023-04-30T03:20:57.315Z,8.87
2023-04-30T03:23:25.664Z,9.37
2023-04-30T03:25:55.472Z,9.40
2023-04-30T03:28:24.136Z,9.27
2023-04-30T03:30:52.305Z,8.80
2023-04-30T03:33:20.660Z,9.30
2023-04-30T03:35:49.837Z,8.80
2023-04-30T03:38:17.951Z,9.10
2023-04-30T03:40:46.123Z,9.07
2023-04-30T03:43:15.593Z,8.90
2023-04-30T03:45:43.825Z,9.37
2023-04-30T03:48:12.045Z,10.07
2023-04-30T03:50:40.403Z,9.20
2023-04-30T03:53:08.475Z,9.50
2023-04-30T03:55:36.721Z,9.53
2023-04-30T03:58:05.092Z,10.23
2023-04-30T04:00:35.018Z,10.10
2023-04-30T04:03:03.623Z,9.97
2023-04-30T04:05:31.806Z,9.47
2023-04-30T04:07:59.981Z,9.93
2023-04-30T04:10:28.084Z,10.87
2023-04-30T04:12:56.313Z,10.23
2023-04-30T04:15:24.488Z,10.80
2023-04-30T04:17:54.033Z,11.20
2023-04-30T04:20:22.424Z,11.10
2023-04-30T04:22:50.573Z,11.63
2023-04-30T04:25:19.464Z,11.50
2023-04-30T04:27:47.679Z,11.90
2023-04-30T04:30:15.842Z,11.17
2023-04-30T04:32:49.600Z,11.13
2023-04-30T04:35:20.717Z,11.80
2023-04-30T04:37:49.048Z,11.90
2023-04-30T04:40:17.344Z,12.90
2023-04-30T04:42:45.506Z,12.13
2023-04-30T04:45:15.984Z,11.93
2023-04-30T04:47:44.163Z,12.03
2023-04-30T04:50:13.118Z,12.60
2023-04-30T04:52:42.614Z,12.73
2023-04-30T04:55:12.271Z,12.90
2023-04-30T04:57:41.988Z,13.50
2023-04-30T05:00:12.109Z,12.03
2023-04-30T05:02:40.426Z,12.93
2023-04-30T05:05:09.226Z,12.97
2023-04-30T05:07:37.327Z,12.90
2023-04-30T05:10:08.048Z,12.53
2023-04-30T05:12:36.216Z,13.10
2023-04-30T05:15:04.881Z,12.40
2023-04-30T05:17:33.071Z,13.07
2023-04-30T05:20:01.226Z,13.27
2023-04-30T05:22:29.449Z,13.30
2023-04-30T05:24:57.634Z,13.23
2023-04-30T05:27:27.596Z,12.73
2023-04-30T05:29:55.941Z,12.83
2023-04-30T05:32:24.702Z,12.93
2023-04-30T05:34:53.124Z,12.97
2023-04-30T05:37:22.725Z,12.70
2023-04-30T05:39:51.123Z,13.13
2023-04-30T05:42:19.312Z,13.30
2023-04-30T05:44:50.541Z,12.77
2023-04-30T05:47:18.799Z,12.57
2023-04-30T05:49:46.935Z,12.83
2023-04-30T05:52:15.594Z,12.20
2023-04-30T05:54:43.898Z,12.77
2023-04-30T05:57:12.328Z,12.97
2023-04-30T05:59:40.532Z,12.70
2023-04-30T06:02:10.278Z,12.70
2023-04-30T06:04:38.546Z,11.80
2023-04-30T06:07:06.913Z,13.07
2023-04-30T06:09:35.189Z,12.30
2023-04-30T06:12:03.955Z,12.77
2023-04-30T06:14:32.424Z,12.57
2023-04-30T06:17:00.730Z,12.20
2023-04-30T06:19:30.477Z,12.30
2023-04-30T06:22:01.683Z,12.63
2023-04-30T06:24:30.458Z,13.20
2023-04-30T06:26:58.560Z,13.33
2023-04-30T06:29:26.793Z,12.63
2023-04-30T06:31:55.246Z,12.70
2023-04-30T06:34:23.553Z,12.90
2023-04-30T06:36:53.049Z,13.00
2023-04-30T06:39:21.255Z,12.70
2023-04-30T06:41:49.490Z,12.40
2023-04-30T06:44:19.019Z,12.60
2023-04-30T06:46:47.264Z,12.83
2023-04-30T06:49:15.387Z,12.87
2023-04-30T06:51:43.813Z,12.93
2023-04-30T06:54:14.458Z,12.40
2023-04-30T06:56:43.958Z,12.17
2023-04-30T06:59:12.372Z,12.43
2023-04-30T07:01:40.999Z,12.60
2023-04-30T07:04:09.227Z,11.83
2023-04-30T07:06:37.592Z,12.27
2023-04-30T07:09:05.797Z,12.93
2023-04-30T07:11:35.338Z,12.30
2023-04-30T07:14:03.877Z,12.30
2023-04-30T07:16:34.188Z,12.93
2023-04-30T07:19:02.435Z,12.60
2023-04-30T07:21:32.820Z,12.40
2023-04-30T07:24:01.234Z,13.67
2023-04-30T07:26:29.426Z,13.60
2023-04-30T07:28:59.278Z,12.80
2023-04-30T07:31:28.661Z,13.10
2023-04-30T07:33:56.880Z,12.77
2023-04-30T07:36:27.399Z,13.53
2023-04-30T07:38:55.770Z,13.83
2023-04-30T07:41:25.538Z,13.60
2023-04-30T07:43:53.672Z,13.00
2023-04-30T07:46:26.376Z,13.47
2023-04-30T07:48:54.533Z,12.93
2023-04-30T07:51:22.810Z,13.07
2023-04-30T07:53:53.236Z,13.00
2023-04-30T07:56:21.598Z,13.50
2023-04-30T07:58:49.742Z,13.03
2023-04-30T08:01:18.161Z,12.57
2023-04-30T08:03:47.878Z,12.93
2023-04-30T08:06:16.140Z,12.73
2023-04-30T08:08:44.264Z,12.53
2023-04-30T08:11:12.880Z,12.47
2023-04-30T08:13:41.892Z,12.47
2023-04-30T08:16:10.428Z,12.27
2023-04-30T08:18:38.981Z,11.70
2023-04-30T08:21:08.759Z,11.73
2023-04-30T08:23:36.929Z,12.07
2023-04-30T08:26:05.246Z,11.63
2023-04-30T08:28:33.439Z,12.33
2023-04-30T08:31:01.844Z,11.80
2023-04-30T08:33:30.021Z,11.23
2023-04-30T08:35:59.432Z,10.80
2023-04-30T08:38:30.002Z,10.90
2023-04-30T08:41:08.691Z,10.70
2023-04-30T08:43:36.853Z,10.23
2023-04-30T08:46:06.252Z,9.93
2023-04-30T08:48:34.830Z,9.07
2023-04-30T08:51:03.479Z,9.40
2023-04-30T08:53:36.963Z,10.10
2023-04-30T08:56:05.725Z,10.07
2023-04-30T08:58:34.161Z,8.93
2023-04-30T09:01:03.724Z,9.07
2023-04-30T09:03:33.247Z,9.10
2023-04-30T09:06:01.531Z,8.13
2023-04-30T09:08:48.061Z,9.03
2023-04-30T09:11:27.344Z,7.97
2023-04-30T09:13:57.857Z,8.03
2023-04-30T09:16:27.173Z,9.37
2023-04-30T09:18:56.805Z,8.23
2023-04-30T09:21:35.266Z,8.23
2023-04-30T09:24:07.466Z,8.33
2023-04-30T09:26:37.191Z,8.00
2023-04-30T09:29:08.902Z,8.70
2023-04-30T09:31:38.679Z,8.43
2023-04-30T09:34:07.675Z,7.73
2023-04-30T09:36:36.211Z,7.30
2023-04-30T09:39:14.874Z,6.67
2023-04-30T09:41:44.582Z,6.73
2023-04-30T09:44:29.534Z,7.07
2023-04-30T09:46:59.545Z,7.07
2023-04-30T09:49:28.438Z,6.67
2023-04-30T09:51:57.564Z,7.27
2023-04-30T09:54:30.014Z,6.77
2023-04-30T09:56:59.741Z,6.60
2023-04-30T09:59:35.288Z,6.80
2023-04-30T10:02:05.040Z,6.10
2023-04-30T10:04:35.425Z,6.50
2023-04-30T10:07:07.441Z,6.57
2023-04-30T10:09:42.807Z,6.43
2023-04-30T10:12:16.491Z,6.43
2023-04-30T10:14:53.204Z,6.33
2023-04-30T10:17:25.302Z,6.20
2023-04-30T10:19:56.316Z,4.70
2023-04-30T10:22:25.211Z,4.67
2023-04-30T10:24:55.704Z,4.40
2023-04-30T10:27:24.241Z,4.40
2023-04-30T10:29:53.340Z,4.10
2023-04-30T10:32:24.107Z,4.80
2023-04-30T10:35:00.747Z,4.20
2023-04-30T10:37:35.817Z,3.20
2023-04-30T10:40:09.307Z,2.50
2023-04-30T10:42:38.712Z,2.63
2023-04-30T10:45:11.245Z,3.40
2023-04-30T10:47:43.105Z,3.23
2023-04-30T10:50:12.505Z,3.20
2023-04-30T10:52:40.821Z,3.30
2023-04-30T10:55:19.194Z,3.50
2023-04-30T10:57:48.500Z,2.90
2023-04-30T11:00:21.211Z,2.57
2023-04-30T11:02:57.888Z,3.03
2023-04-30T11:05:38.028Z,3.30
2023-04-30T11:08:07.054Z,2.70
2023-04-30T11:10:37.332Z,2.40
2023-04-30T11:13:07.833Z,2.70
2023-04-30T11:15:41.580Z,2.87
2023-04-30T11:18:10.626Z,2.93
2023-04-30T11:20:41.962Z,3.30
2023-04-30T11:23:11.388Z,3.17
2023-04-30T11:25:45.139Z,3.47
2023-04-30T11:28:16.901Z,3.30
2023-04-30T11:30:52.728Z,3.10
2023-04-30T11:33:21.937Z,2.90
2023-04-30T11:35:52.829Z,2.60
2023-04-30T11:38:22.706Z,2.33
2023-04-30T11:40:54.266Z,2.10
2023-04-30T11:43:23.940Z,2.57
2023-04-30T11:46:08.513Z,2.60
2023-04-30T11:48:38.464Z,2.87
2023-04-30T11:51:15.334Z,2.73
2023-04-30T11:53:43.788Z,3.00
2023-04-30T11:56:13.503Z,2.60
2023-04-30T11:58:41.876Z,2.40
2023-04-30T12:01:10.748Z,2.13
2023-04-30T12:03:43.975Z,2.30
2023-04-30T12:06:13.120Z,2.80
2023-04-30T12:08:43.263Z,2.10
2023-04-30T12:11:26.241Z,1.73
2023-04-30T12:13:55.466Z,2.30
2023-04-30T12:16:25.052Z,2.20
2023-04-30T12:18:53.449Z,2.20
2023-04-30T12:21:23.042Z,2.20
2023-04-30T12:23:51.665Z,2.10
2023-04-30T12:26:19.897Z,1.97
2023-04-30T12:28:50.595Z,1.90
2023-04-30T12:31:19.436Z,2.20
2023-04-30T12:33:56.516Z,2.77
2023-04-30T12:36:31.621Z,2.30
2023-04-30T12:39:09.900Z,2.40
2023-04-30T12:41:41.436Z,2.30
2023-04-30T12:44:22.190Z,2.10
2023-04-30T12:46:51.355Z,2.10
2023-04-30T12:49:26.805Z,2.17
2023-04-30T12:52:01.296Z,2.10
2023-04-30T12:54:30.698Z,2.33
2023-04-30T12:57:03.461Z,2.50
2023-04-30T12:59:39.215Z,2.07
2023-04-30T13:02:11.931Z,2.07
2023-04-30T13:04:40.997Z,2.20
2023-04-30T13:07:09.236Z,1.83
2023-04-30T13:09:38.237Z,2.00
2023-04-30T13:12:12.765Z,2.20
2023-04-30T13:14:42.396Z,2.43
2023-04-30T13:17:16.721Z,2.10
2023-04-30T13:19:44.909Z,2.17
2023-04-30T13:22:13.472Z,2.47
2023-04-30T13:24:41.565Z,1.70
2023-04-30T13:27:09.686Z,2.03
2023-04-30T13:29:37.964Z,1.60
2023-04-30T13:32:17.673Z,1.50
2023-04-30T13:34:46.060Z,2.00
2023-04-30T13:37:14.146Z,2.00
2023-04-30T13:39:42.369Z,2.20
2023-04-30T13:42:11.165Z,1.97
2023-04-30T13:44:39.879Z,1.40
2023-04-30T13:47:10.311Z,1.50
2023-04-30T13:49:38.531Z,1.70
2023-04-30T13:52:06.890Z,1.90
2023-04-30T13:54:35.382Z,1.77
2023-04-30T13:57:03.639Z,1.83
2023-04-30T13:59:31.926Z,1.50
2023-04-30T14:02:00.185Z,1.20
2023-04-30T14:04:31.039Z,1.50
2023-04-30T14:06:59.312Z,1.20
2023-04-30T14:09:27.440Z,1.20
2023-04-30T14:11:59.105Z,1.00
2023-04-30T14:14:27.914Z,1.30
2023-04-30T14:16:56.459Z,1.10
2023-04-30T14:19:24.948Z,1.20
2023-04-30T14:21:54.683Z,1.10
2023-04-30T14:24:23.041Z,1.10
2023-04-30T14:26:51.463Z,1.10
2023-04-30T14:29:21.572Z,1.37
2023-04-30T14:31:50.083Z,1.80
2023-04-30T14:34:19.034Z,1.30
2023-04-30T14:36:47.242Z,1.60
2023-04-30T14:39:16.758Z,1.60
2023-04-30T14:41:44.978Z,1.60
2023-04-30T14:44:13.498Z,1.40
2023-04-30T14:46:41.932Z,1.57
2023-04-30T14:49:10.303Z,1.23
2023-04-30T14:51:38.434Z,1.20
2023-04-30T14:54:06.776Z,1.30
2023-04-30T14:56:36.550Z,1.40
2023-04-30T14:59:04.862Z,1.40
2023-04-30T15:01:33.031Z,1.27
2023-04-30T15:04:02.186Z,1.37
2023-04-30T15:06:30.974Z,1.20
2023-04-30T15:08:59.327Z,1.20
2023-04-30T15:11:27.414Z,1.20
2023-04-30T15:13:56.945Z,1.20
2023-04-30T15:16:26.438Z,1.30
2023-04-30T15:18:55.348Z,1.30
2023-04-30T15:21:23.662Z,1.27
2023-04-30T15:23:51.978Z,1.50
2023-04-30T15:26:20.142Z,1.23
2023-04-30T15:28:48.252Z,1.40
2023-04-30T15:31:17.819Z,1.23
2023-04-30T15:33:46.132Z,1.30
2023-04-30T15:36:14.256Z,1.33
2023-04-30T15:38:42.537Z,1.50
2023-04-30T15:41:10.628Z,1.20
2023-04-30T15:43:38.828Z,1.50
2023-04-30T15:46:07.096Z,1.33
2023-04-30T15:48:36.563Z,1.00
2023-04-30T15:51:04.978Z,1.50
2023-04-30T15:53:33.190Z,1.20
2023-04-30T15:56:01.513Z,1.40
2023-04-30T15:58:29.605Z,1.30
2023-04-30T16:00:57.680Z,1.30
2023-04-30T16:03:26.075Z,1.20
2023-04-30T16:05:56.022Z,1.30
2023-04-30T16:08:24.208Z,1.10
2023-04-30T16:10:52.604Z,1.27
2023-04-30T16:13:20.820Z,1.27
2023-04-30T16:15:49.097Z,1.60
2023-04-30T16:18:17.176Z,1.37
2023-04-30T16:20:48.688Z,1.50
2023-04-30T16:23:18.202Z,1.50
2023-04-30T16:25:46.356Z,1.60
2023-04-30T16:28:14.436Z,1.47
2023-04-30T16:30:42.946Z,1.33
2023-04-30T16:33:11.292Z,1.20
2023-04-30T16:35:39.651Z,1.00
2023-04-30T16:38:07.830Z,1.23
2023-04-30T16:40:37.436Z,1.10
2023-04-30T16:43:06.161Z,1.10
2023-04-30T16:45:34.555Z,1.43
2023-04-30T16:48:02.802Z,1.40
2023-04-30T16:50:31.641Z,1.50
2023-04-30T16:52:59.793Z,1.43
2023-04-30T16:55:28.029Z,1.60
2023-04-30T16:57:57.563Z,1.80
2023-04-30T17:00:25.823Z,1.73
2023-04-30T17:02:54.075Z,1.60
2023-04-30T17:05:22.511Z,1.40
2023-04-30T17:07:50.643Z,1.53
2023-04-30T17:10:19.629Z,1.47
2023-04-30T17:12:47.808Z,1.30
2023-04-30T17:15:19.027Z,1.40
2023-04-30T17:17:47.489Z,1.53
2023-04-30T17:20:15.685Z,1.40
2023-04-30T17:22:43.901Z,1.50
2023-04-30T17:25:12.614Z,1.40
2023-04-30T17:27:40.899Z,1.20
2023-04-30T17:30:10.017Z,1.40
2023-04-30T17:32:39.782Z,1.70
2023-04-30T17:35:08.727Z,1.50
2023-04-30T17:37:36.837Z,1.60
2023-04-30T17:40:05.634Z,1.40
2023-04-30T17:42:34.113Z,1.40
2023-04-30T17:45:02.240Z,1.30
2023-04-30T17:47:30.606Z,1.40
2023-04-30T17:50:04.067Z,1.40
2023-04-30T17:52:35.546Z,1.20
2023-04-30T17:55:13.428Z,1.30
2023-04-30T17:57:41.677Z,1.60
2023-04-30T18:00:10.771Z,1.67
2023-04-30T18:02:39.141Z,1.50
2023-04-30T18:05:10.106Z,1.50
2023-04-30T18:07:38.610Z,1.40
2023-04-30T18:10:07.831Z,1.33
2023-04-30T18:12:36.913Z,1.60
2023-04-30T18:15:05.793Z,1.37
2023-04-30T18:17:36.919Z,1.47
2023-04-30T18:20:06.626Z,1.60
2023-04-30T18:22:41.303Z,1.50
2023-04-30T18:25:10.739Z,1.60
2023-04-30T18:27:39.086Z,1.60
2023-04-30T18:30:08.808Z,1.60
2023-04-30T18:32:37.363Z,2.00
2023-04-30T18:35:06.417Z,1.63
2023-04-30T18:37:35.957Z,1.60
2023-04-30T18:40:05.034Z,1.83
2023-04-30T18:42:33.463Z,1.63
2023-04-30T18:45:02.234Z,1.83
2023-04-30T18:47:30.929Z,1.70
2023-04-30T18:49:59.305Z,1.57
2023-04-30T18:52:27.404Z,1.77
2023-04-30T18:54:56.886Z,1.53
2023-04-30T18:57:25.556Z,1.70
2023-04-30T18:59:53.889Z,1.60
2023-04-30T19:02:22.831Z,1.73
2023-04-30T19:04:52.185Z,1.80
2023-04-30T19:07:20.319Z,1.80
2023-04-30T19:09:50.455Z,1.70
2023-04-30T19:12:20.190Z,1.40
2023-04-30T19:14:48.616Z,1.83
2023-04-30T19:17:17.881Z,1.80
2023-04-30T19:19:47.448Z,1.90
2023-04-30T19:22:15.704Z,1.77
2023-04-30T19:24:43.799Z,1.80
2023-04-30T19:27:12.016Z,1.90
2023-04-30T19:29:41.614Z,1.70
2023-04-30T19:32:10.196Z,1.77
2023-04-30T19:34:38.456Z,1.60
2023-04-30T19:37:07.215Z,1.73
2023-04-30T19:39:36.568Z,1.80
2023-04-30T19:42:06.021Z,1.70
2023-04-30T19:44:34.144Z,1.90
2023-04-30T19:47:04.263Z,1.80
2023-04-30T19:49:33.097Z,1.87
2023-04-30T19:52:01.507Z,1.97
2023-04-30T19:54:29.621Z,1.80
2023-04-30T19:56:58.196Z,1.67
2023-04-30T19:59:27.766Z,1.90
2023-04-30T20:01:55.947Z,2.00
2023-04-30T20:04:26.461Z,1.73
2023-04-30T20:06:57.317Z,1.70
2023-04-30T20:09:27.692Z,1.67
2023-04-30T20:11:56.061Z,1.90
2023-04-30T20:14:24.461Z,1.80
2023-04-30T20:16:54.408Z,2.00
2023-04-30T20:19:23.024Z,1.80
2023-04-30T20:21:53.033Z,1.90
2023-04-30T20:24:21.781Z,1.67
2023-04-30T20:26:49.974Z,1.90
2023-04-30T20:29:20.606Z,2.17
2023-04-30T20:31:48.878Z,2.30
2023-04-30T20:34:17.163Z,1.83
2023-04-30T20:36:45.972Z,1.90
2023-04-30T20:39:15.822Z,1.70
2023-04-30T20:41:47.981Z,1.93
2023-04-30T20:44:16.144Z,1.63
2023-04-30T20:46:44.339Z,1.90
2023-04-30T20:49:14.710Z,1.90
2023-04-30T20:51:42.992Z,1.83
2023-04-30T20:54:13.427Z,1.90
2023-04-30T20:56:45.120Z,1.80
2023-04-30T20:59:13.402Z,1.73
2023-04-30T21:01:42.182Z,1.90
2023-04-30T21:04:10.645Z,1.77
2023-04-30T21:06:40.560Z,1.90
2023-04-30T21:09:08.729Z,1.73
2023-04-30T21:11:36.832Z,1.87
2023-04-30T21:14:06.462Z,1.70
2023-04-30T21:16:34.613Z,1.67
2023-04-30T21:19:02.999Z,1.70
2023-04-30T21:21:31.230Z,1.60
2023-04-30T21:24:01.174Z,1.60
2023-04-30T21:26:29.332Z,2.00
2023-04-30T21:28:57.755Z,1.43
2023-04-30T21:31:27.418Z,2.07
2023-04-30T21:33:56.061Z,2.03
2023-04-30T21:36:27.138Z,1.80
2023-04-30T21:38:55.569Z,1.97
2023-04-30T21:41:24.619Z,1.90
2023-04-30T21:43:52.876Z,2.00
2023-04-30T21:46:21.521Z,1.63
2023-04-30T21:48:51.308Z,1.93
2023-04-30T21:51:19.610Z,2.23
2023-04-30T21:53:48.038Z,1.70
2023-04-30T21:56:16.452Z,1.77
2023-04-30T21:58:46.363Z,1.73
2023-04-30T22:01:14.600Z,1.77
2023-04-30T22:03:43.427Z,2.10
2023-04-30T22:06:13.130Z,1.70
2023-04-30T22:08:41.616Z,1.60
2023-04-30T22:11:09.834Z,1.77
2023-04-30T22:13:38.064Z,1.70
2023-04-30T22:16:06.797Z,1.77
2023-04-30T22:18:35.174Z,1.83
2023-04-30T22:21:03.276Z,1.70
2023-04-30T22:23:32.796Z,1.97
2023-04-30T22:26:01.600Z,1.90
2023-04-30T22:28:30.073Z,1.63
2023-04-30T22:31:01.031Z,1.93
2023-04-30T22:33:29.243Z,1.80
2023-04-30T22:36:00.047Z,1.70
2023-04-30T22:38:29.374Z,1.70
2023-04-30T22:41:00.138Z,1.77
2023-04-30T22:43:30.405Z,1.70
2023-04-30T22:45:59.075Z,1.70
2023-04-30T22:48:28.306Z,1.70
2023-04-30T22:50:57.928Z,1.60
2023-04-30T22:53:26.269Z,2.00
2023-04-30T22:55:54.976Z,1.80
2023-04-30T22:58:24.526Z,1.90
2023-04-30T23:00:52.706Z,1.80
2023-04-30T23:03:21.201Z,1.90
2023-04-30T23:05:51.610Z,2.37
2023-04-30T23:08:20.142Z,2.10
2023-04-30T23:10:48.782Z,1.90
2023-04-30T23:13:18.729Z,1.83
2023-04-30T23:15:49.495Z,2.00
2023-04-30T23:18:17.593Z,1.90
2023-04-30T23:20:45.940Z,1.80
2023-04-30T23:23:14.073Z,2.10
2023-04-30T23:25:42.266Z,2.10
2023-04-30T23:28:10.401Z,2.17
2023-04-30T23:30:40.070Z,1.70
2023-04-30T23:33:09.859Z,1.80
2023-04-30T23:35:38.161Z,2.07
2023-04-30T23:38:06.259Z,2.00
2023-04-30T23:40:35.225Z,1.87
2023-04-30T23:43:03.396Z,1.83
2023-04-30T23:45:33.071Z,1.80
2023-04-30T23:48:01.454Z,1.80
2023-04-30T23:50:31.099Z,2.17
2023-04-30T23:52:59.552Z,1.70
2023-04-30T23:55:27.704Z,1.87
2023-04-30T23:57:55.742Z,1.93
